sensor_id;sensor_type;location;lat;lon;timestamp;temperature;humidity
48860;DHT22;34679;51.436;-2.518;2023-02-28T00:01:31;2.40;99.90
48860;DHT22;34679;51.436;-2.518;2023-02-28T00:03:57;2.40;99.90
48860;DHT22;34679;51.436;-2.518;2023-02-28T00:06:23;2.40;99.90
48860;DHT22;34679;51.436;-2.518;2023-02-28T00:08:49;2.40;99.90
48860;DHT22;34679;51.436;-2.518;2023-02-28T00:11:15;2.40;99.90
48860;DHT22;34679;51.436;-2.518;2023-02-28T00:13:44;2.40;99.90
48860;DHT22;34679;51.436;-2.518;2023-02-28T00:16:14;2.50;99.90
48860;DHT22;34679;51.436;-2.518;2023-02-28T00:18:41;2.60;99.90
48860;DHT22;34679;51.436;-2.518;2023-02-28T00:21:07;2.50;99.90
48860;DHT22;34679;51.436;-2.518;2023-02-28T00:23:33;2.50;99.90
48860;DHT22;34679;51.436;-2.518;2023-02-28T00:25:59;2.50;99.90
48860;DHT22;34679;51.436;-2.518;2023-02-28T00:28:25;2.60;99.90
48860;DHT22;34679;51.436;-2.518;2023-02-28T00:30:50;2.50;99.90
48860;DHT22;34679;51.436;-2.518;2023-02-28T00:33:16;2.50;99.90
48860;DHT22;34679;51.436;-2.518;2023-02-28T00:35:42;2.40;99.90
48860;DHT22;34679;51.436;-2.518;2023-02-28T00:38:12;2.40;99.90
48860;DHT22;34679;51.436;-2.518;2023-02-28T00:40:37;2.30;99.90
48860;DHT22;34679;51.436;-2.518;2023-02-28T00:43:03;2.20;99.90
48860;DHT22;34679;51.436;-2.518;2023-02-28T00:45:29;2.20;99.90
48860;DHT22;34679;51.436;-2.518;2023-02-28T00:47:55;2.20;99.90
48860;DHT22;34679;51.436;-2.518;2023-02-28T00:50:21;2.10;99.90
48860;DHT22;34679;51.436;-2.518;2023-02-28T00:52:47;1.90;99.90
48860;DHT22;34679;51.436;-2.518;2023-02-28T00:55:13;1.90;99.90
48860;DHT22;34679;51.436;-2.518;2023-02-28T00:57:39;1.80;99.90
48860;DHT22;34679;51.436;-2.518;2023-02-28T01:00:06;1.70;99.90
48860;DHT22;34679;51.436;-2.518;2023-02-28T01:02:32;1.60;99.90
48860;DHT22;34679;51.436;-2.518;2023-02-28T01:04:58;1.50;99.90
48860;DHT22;34679;51.436;-2.518;2023-02-28T01:07:24;1.50;99.90
48860;DHT22;34679;51.436;-2.518;2023-02-28T01:09:49;1.40;99.90
48860;DHT22;34679;51.436;-2.518;2023-02-28T01:12:15;1.40;99.90
48860;DHT22;34679;51.436;-2.518;2023-02-28T01:14:41;1.40;99.90
48860;DHT22;34679;51.436;-2.518;2023-02-28T01:17:07;1.30;99.90
48860;DHT22;34679;51.436;-2.518;2023-02-28T01:19:33;1.30;99.90
48860;DHT22;34679;51.436;-2.518;2023-02-28T01:22:06;1.30;99.90
48860;DHT22;34679;51.436;-2.518;2023-02-28T01:24:32;1.20;99.90
48860;DHT22;34679;51.436;-2.518;2023-02-28T01:26:58;1.20;99.90
48860;DHT22;34679;51.436;-2.518;2023-02-28T01:29:24;1.20;99.90
48860;DHT22;34679;51.436;-2.518;2023-02-28T01:31:49;1.20;99.90
48860;DHT22;34679;51.436;-2.518;2023-02-28T01:34:16;1.10;99.90
48860;DHT22;34679;51.436;-2.518;2023-02-28T01:36:41;1.00;99.90
48860;DHT22;34679;51.436;-2.518;2023-02-28T01:39:07;1.00;99.90
48860;DHT22;34679;51.436;-2.518;2023-02-28T01:41:34;0.90;99.90
48860;DHT22;34679;51.436;-2.518;2023-02-28T01:47:12;0.90;99.90
48860;DHT22;34679;51.436;-2.518;2023-02-28T01:49:38;0.80;99.90
48860;DHT22;34679;51.436;-2.518;2023-02-28T01:52:04;0.80;99.90
48860;DHT22;34679;51.436;-2.518;2023-02-28T01:54:31;0.80;99.90
48860;DHT22;34679;51.436;-2.518;2023-02-28T01:57:09;0.80;99.90
48860;DHT22;34679;51.436;-2.518;2023-02-28T01:59:40;0.80;99.90
48860;DHT22;34679;51.436;-2.518;2023-02-28T02:02:15;0.90;99.90
48860;DHT22;34679;51.436;-2.518;2023-02-28T02:04:50;0.90;99.90
48860;DHT22;34679;51.436;-2.518;2023-02-28T02:07:17;0.90;99.90
48860;DHT22;34679;51.436;-2.518;2023-02-28T02:09:42;1.00;99.90
48860;DHT22;34679;51.436;-2.518;2023-02-28T02:15:16;1.10;99.90
48860;DHT22;34679;51.436;-2.518;2023-02-28T02:17:53;1.10;99.90
48860;DHT22;34679;51.436;-2.518;2023-02-28T02:20:32;1.10;99.90
48860;DHT22;34679;51.436;-2.518;2023-02-28T02:26:03;1.10;99.90
48860;DHT22;34679;51.436;-2.518;2023-02-28T02:32:01;1.10;99.90
48860;DHT22;34679;51.436;-2.518;2023-02-28T02:40:23;1.00;99.90
48860;DHT22;34679;51.436;-2.518;2023-02-28T02:42:59;1.00;99.90
48860;DHT22;34679;51.436;-2.518;2023-02-28T02:45:46;0.90;99.90
48860;DHT22;34679;51.436;-2.518;2023-02-28T02:48:18;0.90;99.90
48860;DHT22;34679;51.436;-2.518;2023-02-28T02:51:07;0.80;99.90
48860;DHT22;34679;51.436;-2.518;2023-02-28T02:53:42;0.80;99.90
48860;DHT22;34679;51.436;-2.518;2023-02-28T02:56:11;0.70;99.90
48860;DHT22;34679;51.436;-2.518;2023-02-28T02:58:41;0.70;99.90
48860;DHT22;34679;51.436;-2.518;2023-02-28T03:01:09;0.60;99.90
48860;DHT22;34679;51.436;-2.518;2023-02-28T03:03:36;0.60;99.90
48860;DHT22;34679;51.436;-2.518;2023-02-28T03:06:03;0.60;99.90
48860;DHT22;34679;51.436;-2.518;2023-02-28T03:08:36;0.70;99.90
48860;DHT22;34679;51.436;-2.518;2023-02-28T03:11:11;0.70;99.90
48860;DHT22;34679;51.436;-2.518;2023-02-28T03:16:42;1.00;99.90
48860;DHT22;34679;51.436;-2.518;2023-02-28T03:24:40;1.20;99.90
48860;DHT22;34679;51.436;-2.518;2023-02-28T03:27:13;1.10;99.90
48860;DHT22;34679;51.436;-2.518;2023-02-28T03:29:50;1.10;99.90
48860;DHT22;34679;51.436;-2.518;2023-02-28T03:32:27;1.10;99.90
48860;DHT22;34679;51.436;-2.518;2023-02-28T03:35:03;1.10;99.90
48860;DHT22;34679;51.436;-2.518;2023-02-28T03:37:32;1.10;99.90
48860;DHT22;34679;51.436;-2.518;2023-02-28T03:40:06;1.10;99.90
48860;DHT22;34679;51.436;-2.518;2023-02-28T03:42:36;1.10;99.90
48860;DHT22;34679;51.436;-2.518;2023-02-28T03:45:28;1.20;99.90
48860;DHT22;34679;51.436;-2.518;2023-02-28T03:48:25;1.20;99.90
48860;DHT22;34679;51.436;-2.518;2023-02-28T03:50:55;1.30;99.90
48860;DHT22;34679;51.436;-2.518;2023-02-28T03:53:30;1.30;99.90
48860;DHT22;34679;51.436;-2.518;2023-02-28T03:56:02;1.40;99.90
48860;DHT22;34679;51.436;-2.518;2023-02-28T03:58:49;1.40;99.90
48860;DHT22;34679;51.436;-2.518;2023-02-28T04:01:33;1.50;99.90
48860;DHT22;34679;51.436;-2.518;2023-02-28T04:04:01;1.70;99.90
48860;DHT22;34679;51.436;-2.518;2023-02-28T04:06:27;1.80;99.90
48860;DHT22;34679;51.436;-2.518;2023-02-28T04:08:56;2.00;99.90
48860;DHT22;34679;51.436;-2.518;2023-02-28T04:11:31;2.10;99.90
48860;DHT22;34679;51.436;-2.518;2023-02-28T04:13:58;2.10;99.90
48860;DHT22;34679;51.436;-2.518;2023-02-28T04:16:24;2.20;99.90
48860;DHT22;34679;51.436;-2.518;2023-02-28T04:18:49;2.20;99.90
48860;DHT22;34679;51.436;-2.518;2023-02-28T04:21:15;2.20;99.90
48860;DHT22;34679;51.436;-2.518;2023-02-28T04:23:41;2.20;99.90
48860;DHT22;34679;51.436;-2.518;2023-02-28T04:26:07;2.10;99.90
48860;DHT22;34679;51.436;-2.518;2023-02-28T04:28:33;2.00;99.90
48860;DHT22;34679;51.436;-2.518;2023-02-28T04:31:03;2.10;99.90
48860;DHT22;34679;51.436;-2.518;2023-02-28T04:33:31;2.10;99.90
48860;DHT22;34679;51.436;-2.518;2023-02-28T04:36:06;2.20;99.90
48860;DHT22;34679;51.436;-2.518;2023-02-28T04:38:36;2.10;99.90
48860;DHT22;34679;51.436;-2.518;2023-02-28T04:41:03;2.20;99.90
48860;DHT22;34679;51.436;-2.518;2023-02-28T04:43:29;2.20;99.90
48860;DHT22;34679;51.436;-2.518;2023-02-28T04:45:56;2.30;99.90
48860;DHT22;34679;51.436;-2.518;2023-02-28T04:48:23;2.30;99.90
48860;DHT22;34679;51.436;-2.518;2023-02-28T04:50:50;2.40;99.90
48860;DHT22;34679;51.436;-2.518;2023-02-28T04:53:16;2.60;99.90
48860;DHT22;34679;51.436;-2.518;2023-02-28T04:55:41;2.70;99.90
48860;DHT22;34679;51.436;-2.518;2023-02-28T04:58:07;2.90;99.90
48860;DHT22;34679;51.436;-2.518;2023-02-28T05:00:33;3.00;99.90
48860;DHT22;34679;51.436;-2.518;2023-02-28T05:02:58;3.20;99.90
48860;DHT22;34679;51.436;-2.518;2023-02-28T05:05:24;3.20;99.90
48860;DHT22;34679;51.436;-2.518;2023-02-28T05:07:50;3.30;99.90
48860;DHT22;34679;51.436;-2.518;2023-02-28T05:10:16;3.40;99.90
48860;DHT22;34679;51.436;-2.518;2023-02-28T05:12:41;3.40;99.90
48860;DHT22;34679;51.436;-2.518;2023-02-28T05:15:11;3.50;99.90
48860;DHT22;34679;51.436;-2.518;2023-02-28T05:17:37;3.50;99.90
48860;DHT22;34679;51.436;-2.518;2023-02-28T05:20:03;3.60;99.90
48860;DHT22;34679;51.436;-2.518;2023-02-28T05:22:30;3.60;99.90
48860;DHT22;34679;51.436;-2.518;2023-02-28T05:24:56;3.70;99.90
48860;DHT22;34679;51.436;-2.518;2023-02-28T05:27:21;3.70;99.90
48860;DHT22;34679;51.436;-2.518;2023-02-28T05:29:48;3.70;99.90
48860;DHT22;34679;51.436;-2.518;2023-02-28T05:32:14;3.70;99.90
48860;DHT22;34679;51.436;-2.518;2023-02-28T05:34:41;3.70;99.90
48860;DHT22;34679;51.436;-2.518;2023-02-28T05:37:11;3.70;99.90
48860;DHT22;34679;51.436;-2.518;2023-02-28T05:39:37;3.80;99.90
48860;DHT22;34679;51.436;-2.518;2023-02-28T05:42:04;3.80;99.90
48860;DHT22;34679;51.436;-2.518;2023-02-28T05:44:30;3.80;99.90
48860;DHT22;34679;51.436;-2.518;2023-02-28T05:46:55;3.80;99.90
48860;DHT22;34679;51.436;-2.518;2023-02-28T05:49:21;3.70;99.90
48860;DHT22;34679;51.436;-2.518;2023-02-28T05:51:47;3.70;99.90
48860;DHT22;34679;51.436;-2.518;2023-02-28T05:54:12;3.60;99.90
48860;DHT22;34679;51.436;-2.518;2023-02-28T05:56:38;3.50;99.90
48860;DHT22;34679;51.436;-2.518;2023-02-28T05:59:06;3.50;99.90
48860;DHT22;34679;51.436;-2.518;2023-02-28T06:01:43;3.50;99.90
48860;DHT22;34679;51.436;-2.518;2023-02-28T06:04:14;3.50;99.90
48860;DHT22;34679;51.436;-2.518;2023-02-28T06:06:44;3.50;99.90
48860;DHT22;34679;51.436;-2.518;2023-02-28T06:09:10;3.50;99.90
48860;DHT22;34679;51.436;-2.518;2023-02-28T06:11:36;3.60;99.90
48860;DHT22;34679;51.436;-2.518;2023-02-28T06:14:02;3.70;99.90
48860;DHT22;34679;51.436;-2.518;2023-02-28T06:16:28;3.80;99.90
48860;DHT22;34679;51.436;-2.518;2023-02-28T06:18:57;3.80;99.90
48860;DHT22;34679;51.436;-2.518;2023-02-28T06:21:23;3.80;99.90
48860;DHT22;34679;51.436;-2.518;2023-02-28T06:23:49;3.90;99.90
48860;DHT22;34679;51.436;-2.518;2023-02-28T06:26:15;3.90;99.90
48860;DHT22;34679;51.436;-2.518;2023-02-28T06:28:41;3.80;99.90
48860;DHT22;34679;51.436;-2.518;2023-02-28T06:31:11;3.80;99.90
48860;DHT22;34679;51.436;-2.518;2023-02-28T06:33:38;3.80;99.90
48860;DHT22;34679;51.436;-2.518;2023-02-28T06:36:05;3.80;99.90
48860;DHT22;34679;51.436;-2.518;2023-02-28T06:38:31;3.80;99.90
48860;DHT22;34679;51.436;-2.518;2023-02-28T06:40:59;3.80;99.90
48860;DHT22;34679;51.436;-2.518;2023-02-28T06:43:26;3.80;99.90
48860;DHT22;34679;51.436;-2.518;2023-02-28T06:45:57;3.80;99.90
48860;DHT22;34679;51.436;-2.518;2023-02-28T06:48:23;3.80;99.90
48860;DHT22;34679;51.436;-2.518;2023-02-28T06:50:49;3.80;99.90
48860;DHT22;34679;51.436;-2.518;2023-02-28T06:53:15;3.80;99.90
48860;DHT22;34679;51.436;-2.518;2023-02-28T06:55:41;3.80;99.90
48860;DHT22;34679;51.436;-2.518;2023-02-28T06:58:07;3.80;99.90
48860;DHT22;34679;51.436;-2.518;2023-02-28T07:00:45;3.80;99.90
48860;DHT22;34679;51.436;-2.518;2023-02-28T07:03:12;3.90;99.90
48860;DHT22;34679;51.436;-2.518;2023-02-28T07:05:39;3.90;99.90
48860;DHT22;34679;51.436;-2.518;2023-02-28T07:08:05;3.80;99.90
48860;DHT22;34679;51.436;-2.518;2023-02-28T07:10:32;3.80;99.90
48860;DHT22;34679;51.436;-2.518;2023-02-28T07:12:59;3.90;99.90
48860;DHT22;34679;51.436;-2.518;2023-02-28T07:15:25;3.80;99.90
48860;DHT22;34679;51.436;-2.518;2023-02-28T07:17:50;3.80;99.90
48860;DHT22;34679;51.436;-2.518;2023-02-28T07:20:17;3.80;99.90
48860;DHT22;34679;51.436;-2.518;2023-02-28T07:22:42;3.80;99.90
48860;DHT22;34679;51.436;-2.518;2023-02-28T07:25:09;3.80;99.90
48860;DHT22;34679;51.436;-2.518;2023-02-28T07:27:34;3.80;99.90
48860;DHT22;34679;51.436;-2.518;2023-02-28T07:30:00;3.90;99.90
48860;DHT22;34679;51.436;-2.518;2023-02-28T07:32:28;3.90;99.90
48860;DHT22;34679;51.436;-2.518;2023-02-28T07:34:54;3.90;99.90
48860;DHT22;34679;51.436;-2.518;2023-02-28T07:37:20;4.00;99.90
48860;DHT22;34679;51.436;-2.518;2023-02-28T07:39:46;4.00;99.90
48860;DHT22;34679;51.436;-2.518;2023-02-28T07:42:12;4.00;99.90
48860;DHT22;34679;51.436;-2.518;2023-02-28T07:44:41;4.10;99.90
48860;DHT22;34679;51.436;-2.518;2023-02-28T07:47:10;4.10;99.90
48860;DHT22;34679;51.436;-2.518;2023-02-28T07:49:36;4.10;99.90
48860;DHT22;34679;51.436;-2.518;2023-02-28T07:52:04;4.20;99.90
48860;DHT22;34679;51.436;-2.518;2023-02-28T07:54:30;4.20;99.90
48860;DHT22;34679;51.436;-2.518;2023-02-28T07:56:56;4.30;99.90
48860;DHT22;34679;51.436;-2.518;2023-02-28T07:59:21;4.30;99.90
48860;DHT22;34679;51.436;-2.518;2023-02-28T08:01:47;4.30;99.90
48860;DHT22;34679;51.436;-2.518;2023-02-28T08:04:16;4.40;99.90
48860;DHT22;34679;51.436;-2.518;2023-02-28T08:06:42;4.30;99.90
48860;DHT22;34679;51.436;-2.518;2023-02-28T08:09:07;4.40;99.90
48860;DHT22;34679;51.436;-2.518;2023-02-28T08:11:33;4.40;99.90
48860;DHT22;34679;51.436;-2.518;2023-02-28T08:13:59;4.40;99.90
48860;DHT22;34679;51.436;-2.518;2023-02-28T08:16:24;4.40;99.90
48860;DHT22;34679;51.436;-2.518;2023-02-28T08:18:54;4.40;99.90
48860;DHT22;34679;51.436;-2.518;2023-02-28T08:21:20;4.50;99.90
48860;DHT22;34679;51.436;-2.518;2023-02-28T08:23:50;4.60;99.90
48860;DHT22;34679;51.436;-2.518;2023-02-28T08:26:17;4.70;99.90
48860;DHT22;34679;51.436;-2.518;2023-02-28T08:28:43;4.70;99.90
48860;DHT22;34679;51.436;-2.518;2023-02-28T08:31:11;4.80;99.90
48860;DHT22;34679;51.436;-2.518;2023-02-28T08:33:38;4.90;99.90
48860;DHT22;34679;51.436;-2.518;2023-02-28T08:36:05;5.00;99.90
48860;DHT22;34679;51.436;-2.518;2023-02-28T08:38:31;5.10;99.90
48860;DHT22;34679;51.436;-2.518;2023-02-28T08:40:59;5.10;99.90
48860;DHT22;34679;51.436;-2.518;2023-02-28T08:43:25;5.30;99.90
48860;DHT22;34679;51.436;-2.518;2023-02-28T08:45:54;5.40;99.90
48860;DHT22;34679;51.436;-2.518;2023-02-28T08:48:23;5.40;99.90
48860;DHT22;34679;51.436;-2.518;2023-02-28T08:51:03;5.40;99.90
48860;DHT22;34679;51.436;-2.518;2023-02-28T08:53:30;5.40;99.90
48860;DHT22;34679;51.436;-2.518;2023-02-28T08:56:10;5.50;99.90
48860;DHT22;34679;51.436;-2.518;2023-02-28T08:58:36;5.50;99.90
48860;DHT22;34679;51.436;-2.518;2023-02-28T09:01:20;5.60;99.90
48860;DHT22;34679;51.436;-2.518;2023-02-28T09:03:48;5.70;99.90
48860;DHT22;34679;51.436;-2.518;2023-02-28T09:06:15;5.70;99.90
48860;DHT22;34679;51.436;-2.518;2023-02-28T09:08:42;5.70;99.90
48860;DHT22;34679;51.436;-2.518;2023-02-28T09:11:09;5.70;99.90
48860;DHT22;34679;51.436;-2.518;2023-02-28T09:13:35;5.70;99.90
48860;DHT22;34679;51.436;-2.518;2023-02-28T09:16:03;5.90;99.90
48860;DHT22;34679;51.436;-2.518;2023-02-28T09:18:29;6.00;99.90
48860;DHT22;34679;51.436;-2.518;2023-02-28T09:20:55;5.90;99.90
48860;DHT22;34679;51.436;-2.518;2023-02-28T09:23:21;6.00;99.90
48860;DHT22;34679;51.436;-2.518;2023-02-28T09:25:49;5.90;99.90
48860;DHT22;34679;51.436;-2.518;2023-02-28T09:28:16;5.90;99.90
48860;DHT22;34679;51.436;-2.518;2023-02-28T09:30:46;5.90;99.90
48860;DHT22;34679;51.436;-2.518;2023-02-28T09:33:12;6.10;99.90
48860;DHT22;34679;51.436;-2.518;2023-02-28T09:35:38;6.10;99.90
48860;DHT22;34679;51.436;-2.518;2023-02-28T09:38:04;5.90;99.90
48860;DHT22;34679;51.436;-2.518;2023-02-28T09:40:31;5.90;99.90
48860;DHT22;34679;51.436;-2.518;2023-02-28T09:42:59;5.80;99.90
48860;DHT22;34679;51.436;-2.518;2023-02-28T09:45:48;5.70;99.90
48860;DHT22;34679;51.436;-2.518;2023-02-28T09:48:20;5.80;99.90
48860;DHT22;34679;51.436;-2.518;2023-02-28T09:50:50;6.00;99.90
48860;DHT22;34679;51.436;-2.518;2023-02-28T09:53:26;6.00;99.90
48860;DHT22;34679;51.436;-2.518;2023-02-28T09:56:02;6.10;99.90
48860;DHT22;34679;51.436;-2.518;2023-02-28T09:58:42;6.20;99.90
48860;DHT22;34679;51.436;-2.518;2023-02-28T10:01:45;6.30;99.90
48860;DHT22;34679;51.436;-2.518;2023-02-28T10:07:35;6.70;99.90
48860;DHT22;34679;51.436;-2.518;2023-02-28T10:09:59;6.70;99.90
48860;DHT22;34679;51.436;-2.518;2023-02-28T10:12:29;6.80;99.90
48860;DHT22;34679;51.436;-2.518;2023-02-28T10:14:59;7.00;99.90
48860;DHT22;34679;51.436;-2.518;2023-02-28T10:17:44;6.80;99.90
48860;DHT22;34679;51.436;-2.518;2023-02-28T10:20:11;6.70;99.90
48860;DHT22;34679;51.436;-2.518;2023-02-28T10:25:35;6.80;99.90
48860;DHT22;34679;51.436;-2.518;2023-02-28T10:28:12;7.00;99.90
48860;DHT22;34679;51.436;-2.518;2023-02-28T10:30:44;7.20;99.90
48860;DHT22;34679;51.436;-2.518;2023-02-28T10:36:15;7.30;99.90
48860;DHT22;34679;51.436;-2.518;2023-02-28T10:38:43;7.30;99.90
48860;DHT22;34679;51.436;-2.518;2023-02-28T10:41:11;7.50;99.90
48860;DHT22;34679;51.436;-2.518;2023-02-28T10:43:38;7.40;99.90
48860;DHT22;34679;51.436;-2.518;2023-02-28T10:46:10;7.50;99.90
48860;DHT22;34679;51.436;-2.518;2023-02-28T10:48:41;7.50;99.90
48860;DHT22;34679;51.436;-2.518;2023-02-28T10:51:15;7.50;99.90
48860;DHT22;34679;51.436;-2.518;2023-02-28T10:53:52;7.70;99.90
48860;DHT22;34679;51.436;-2.518;2023-02-28T10:56:20;8.00;99.90
48860;DHT22;34679;51.436;-2.518;2023-02-28T11:03:56;8.10;99.90
48860;DHT22;34679;51.436;-2.518;2023-02-28T11:06:29;8.10;99.90
48860;DHT22;34679;51.436;-2.518;2023-02-28T11:09:03;8.20;99.90
48860;DHT22;34679;51.436;-2.518;2023-02-28T11:11:40;8.20;99.90
48860;DHT22;34679;51.436;-2.518;2023-02-28T11:14:24;8.20;99.90
48860;DHT22;34679;51.436;-2.518;2023-02-28T11:16:51;7.90;99.90
48860;DHT22;34679;51.436;-2.518;2023-02-28T11:19:44;7.90;99.90
48860;DHT22;34679;51.436;-2.518;2023-02-28T11:22:11;7.80;99.90
48860;DHT22;34679;51.436;-2.518;2023-02-28T11:24:45;7.70;99.90
48860;DHT22;34679;51.436;-2.518;2023-02-28T11:29:57;7.70;99.90
48860;DHT22;34679;51.436;-2.518;2023-02-28T11:32:25;7.70;99.90
48860;DHT22;34679;51.436;-2.518;2023-02-28T11:37:35;7.60;99.90
48860;DHT22;34679;51.436;-2.518;2023-02-28T11:40:02;7.60;99.90
48860;DHT22;34679;51.436;-2.518;2023-02-28T11:45:21;8.00;99.90
48860;DHT22;34679;51.436;-2.518;2023-02-28T11:56:47;8.10;99.90
48860;DHT22;34679;51.436;-2.518;2023-02-28T12:07:31;8.90;99.90
48860;DHT22;34679;51.436;-2.518;2023-02-28T12:20:58;8.50;99.90
48860;DHT22;34679;51.436;-2.518;2023-02-28T12:28:52;8.40;99.90
48860;DHT22;34679;51.436;-2.518;2023-02-28T12:31:25;8.20;99.90
48860;DHT22;34679;51.436;-2.518;2023-02-28T12:34:00;8.20;99.90
48860;DHT22;34679;51.436;-2.518;2023-02-28T12:36:28;8.20;99.90
48860;DHT22;34679;51.436;-2.518;2023-02-28T12:39:10;8.30;99.90
48860;DHT22;34679;51.436;-2.518;2023-02-28T12:41:59;8.40;99.90
48860;DHT22;34679;51.436;-2.518;2023-02-28T12:47:14;8.40;99.90
48860;DHT22;34679;51.436;-2.518;2023-02-28T12:49:59;8.40;99.90
48860;DHT22;34679;51.436;-2.518;2023-02-28T12:52:40;8.40;99.90
48860;DHT22;34679;51.436;-2.518;2023-02-28T12:58:25;8.10;99.90
48860;DHT22;34679;51.436;-2.518;2023-02-28T13:04:39;7.90;99.90
48860;DHT22;34679;51.436;-2.518;2023-02-28T13:09:53;8.20;99.90
48860;DHT22;34679;51.436;-2.518;2023-02-28T13:12:18;8.40;99.90
48860;DHT22;34679;51.436;-2.518;2023-02-28T13:14:46;8.40;99.90
48860;DHT22;34679;51.436;-2.518;2023-02-28T13:17:14;8.40;99.90
48860;DHT22;34679;51.436;-2.518;2023-02-28T13:20:13;8.40;99.90
48860;DHT22;34679;51.436;-2.518;2023-02-28T13:22:51;8.60;99.90
48860;DHT22;34679;51.436;-2.518;2023-02-28T13:27:46;9.10;99.90
48860;DHT22;34679;51.436;-2.518;2023-02-28T13:33:28;8.90;99.90
48860;DHT22;34679;51.436;-2.518;2023-02-28T13:38:48;8.80;99.90
48860;DHT22;34679;51.436;-2.518;2023-02-28T13:44:02;8.90;99.90
48860;DHT22;34679;51.436;-2.518;2023-02-28T13:46:28;8.70;99.90
48860;DHT22;34679;51.436;-2.518;2023-02-28T13:48:56;8.50;99.90
48860;DHT22;34679;51.436;-2.518;2023-02-28T13:51:47;8.40;99.90
48860;DHT22;34679;51.436;-2.518;2023-02-28T13:57:30;8.90;99.90
48860;DHT22;34679;51.436;-2.518;2023-02-28T14:05:42;8.30;99.90
48860;DHT22;34679;51.436;-2.518;2023-02-28T14:08:15;8.40;99.90
48860;DHT22;34679;51.436;-2.518;2023-02-28T14:10:46;8.30;99.90
48860;DHT22;34679;51.436;-2.518;2023-02-28T14:13:13;8.30;99.90
48860;DHT22;34679;51.436;-2.518;2023-02-28T14:16:01;8.30;99.90
48860;DHT22;34679;51.436;-2.518;2023-02-28T14:21:02;8.40;99.90
48860;DHT22;34679;51.436;-2.518;2023-02-28T14:27:08;8.50;99.90
48860;DHT22;34679;51.436;-2.518;2023-02-28T14:32:21;8.30;99.90
48860;DHT22;34679;51.436;-2.518;2023-02-28T14:37:41;8.10;99.90
48860;DHT22;34679;51.436;-2.518;2023-02-28T14:40:24;8.10;99.90
48860;DHT22;34679;51.436;-2.518;2023-02-28T14:43:17;8.20;99.90
48860;DHT22;34679;51.436;-2.518;2023-02-28T14:45:50;8.30;99.90
48860;DHT22;34679;51.436;-2.518;2023-02-28T14:48:18;8.40;99.90
48860;DHT22;34679;51.436;-2.518;2023-02-28T14:50:53;8.60;99.90
48860;DHT22;34679;51.436;-2.518;2023-02-28T14:53:21;8.60;99.90
48860;DHT22;34679;51.436;-2.518;2023-02-28T14:55:48;8.70;99.90
48860;DHT22;34679;51.436;-2.518;2023-02-28T14:58:26;8.60;99.90
48860;DHT22;34679;51.436;-2.518;2023-02-28T15:00:54;8.60;99.90
48860;DHT22;34679;51.436;-2.518;2023-02-28T15:05:57;8.50;99.90
48860;DHT22;34679;51.436;-2.518;2023-02-28T15:08:24;8.40;99.90
48860;DHT22;34679;51.436;-2.518;2023-02-28T15:13:21;8.20;99.90
48860;DHT22;34679;51.436;-2.518;2023-02-28T15:21:22;8.20;99.90
48860;DHT22;34679;51.436;-2.518;2023-02-28T15:24:10;8.00;99.90
48860;DHT22;34679;51.436;-2.518;2023-02-28T15:26:43;7.90;99.90
48860;DHT22;34679;51.436;-2.518;2023-02-28T15:29:16;7.90;99.90
48860;DHT22;34679;51.436;-2.518;2023-02-28T15:31:48;8.10;99.90
48860;DHT22;34679;51.436;-2.518;2023-02-28T15:34:21;8.10;99.90
48860;DHT22;34679;51.436;-2.518;2023-02-28T15:36:48;8.20;99.90
48860;DHT22;34679;51.436;-2.518;2023-02-28T15:39:25;8.30;99.90
48860;DHT22;34679;51.436;-2.518;2023-02-28T15:41:55;8.40;99.90
48860;DHT22;34679;51.436;-2.518;2023-02-28T15:44:34;8.50;99.90
48860;DHT22;34679;51.436;-2.518;2023-02-28T15:47:19;8.40;99.90
48860;DHT22;34679;51.436;-2.518;2023-02-28T15:49:46;8.40;99.90
48860;DHT22;34679;51.436;-2.518;2023-02-28T15:52:15;8.50;99.90
48860;DHT22;34679;51.436;-2.518;2023-02-28T15:54:43;8.50;99.90
48860;DHT22;34679;51.436;-2.518;2023-02-28T15:57:23;8.40;99.90
48860;DHT22;34679;51.436;-2.518;2023-02-28T15:59:56;8.40;99.90
48860;DHT22;34679;51.436;-2.518;2023-02-28T16:02:37;8.30;99.90
48860;DHT22;34679;51.436;-2.518;2023-02-28T16:07:44;8.30;99.90
48860;DHT22;34679;51.436;-2.518;2023-02-28T16:10:12;8.30;99.90
48860;DHT22;34679;51.436;-2.518;2023-02-28T16:12:39;8.30;99.90
48860;DHT22;34679;51.436;-2.518;2023-02-28T16:15:18;8.30;99.90
48860;DHT22;34679;51.436;-2.518;2023-02-28T16:17:44;8.30;99.90
48860;DHT22;34679;51.436;-2.518;2023-02-28T16:20:32;8.30;99.90
48860;DHT22;34679;51.436;-2.518;2023-02-28T16:22:57;8.30;99.90
48860;DHT22;34679;51.436;-2.518;2023-02-28T16:25:35;8.20;99.90
48860;DHT22;34679;51.436;-2.518;2023-02-28T16:28:02;8.20;99.90
48860;DHT22;34679;51.436;-2.518;2023-02-28T16:30:28;8.20;99.90
48860;DHT22;34679;51.436;-2.518;2023-02-28T16:32:57;8.20;99.90
48860;DHT22;34679;51.436;-2.518;2023-02-28T16:35:24;8.20;99.90
48860;DHT22;34679;51.436;-2.518;2023-02-28T16:37:53;8.10;99.90
48860;DHT22;34679;51.436;-2.518;2023-02-28T16:40:22;8.00;99.90
48860;DHT22;34679;51.436;-2.518;2023-02-28T16:42:50;8.00;99.90
48860;DHT22;34679;51.436;-2.518;2023-02-28T16:45:25;7.90;99.90
48860;DHT22;34679;51.436;-2.518;2023-02-28T16:47:51;8.00;99.90
48860;DHT22;34679;51.436;-2.518;2023-02-28T16:50:20;8.00;99.90
48860;DHT22;34679;51.436;-2.518;2023-02-28T16:52:46;8.00;99.90
48860;DHT22;34679;51.436;-2.518;2023-02-28T16:55:12;8.10;99.90
48860;DHT22;34679;51.436;-2.518;2023-02-28T16:57:38;8.20;99.90
48860;DHT22;34679;51.436;-2.518;2023-02-28T17:00:06;8.20;99.90
48860;DHT22;34679;51.436;-2.518;2023-02-28T17:02:33;8.20;99.90
48860;DHT22;34679;51.436;-2.518;2023-02-28T17:04:59;8.20;99.90
48860;DHT22;34679;51.436;-2.518;2023-02-28T17:07:25;8.20;99.90
48860;DHT22;34679;51.436;-2.518;2023-02-28T17:09:51;8.20;99.90
48860;DHT22;34679;51.436;-2.518;2023-02-28T17:12:16;8.30;99.90
48860;DHT22;34679;51.436;-2.518;2023-02-28T17:14:42;8.20;99.90
48860;DHT22;34679;51.436;-2.518;2023-02-28T17:17:20;8.10;99.90
48860;DHT22;34679;51.436;-2.518;2023-02-28T17:19:47;8.10;99.90
48860;DHT22;34679;51.436;-2.518;2023-02-28T17:22:13;8.10;99.90
48860;DHT22;34679;51.436;-2.518;2023-02-28T17:24:38;8.10;99.90
48860;DHT22;34679;51.436;-2.518;2023-02-28T17:27:04;8.00;99.90
48860;DHT22;34679;51.436;-2.518;2023-02-28T17:29:30;7.90;99.90
48860;DHT22;34679;51.436;-2.518;2023-02-28T17:31:56;7.90;99.90
48860;DHT22;34679;51.436;-2.518;2023-02-28T17:34:22;7.90;99.90
48860;DHT22;34679;51.436;-2.518;2023-02-28T17:36:49;7.80;99.90
48860;DHT22;34679;51.436;-2.518;2023-02-28T17:39:16;7.80;99.90
48860;DHT22;34679;51.436;-2.518;2023-02-28T17:41:50;7.80;99.90
48860;DHT22;34679;51.436;-2.518;2023-02-28T17:44:17;7.70;99.90
48860;DHT22;34679;51.436;-2.518;2023-02-28T17:46:44;7.70;99.90
48860;DHT22;34679;51.436;-2.518;2023-02-28T17:49:10;7.70;99.90
48860;DHT22;34679;51.436;-2.518;2023-02-28T17:51:36;7.70;99.90
48860;DHT22;34679;51.436;-2.518;2023-02-28T17:54:01;7.70;99.90
48860;DHT22;34679;51.436;-2.518;2023-02-28T17:56:27;7.70;99.90
48860;DHT22;34679;51.436;-2.518;2023-02-28T17:58:55;7.70;99.90
48860;DHT22;34679;51.436;-2.518;2023-02-28T18:01:22;7.70;99.90
48860;DHT22;34679;51.436;-2.518;2023-02-28T18:03:49;7.70;99.90
48860;DHT22;34679;51.436;-2.518;2023-02-28T18:06:23;7.60;99.90